createdAt,value
2019-05-03T00:01:34.516Z,6.40
2019-05-03T00:04:02.592Z,6.47
2019-05-03T00:06:29.521Z,6.65
2019-05-03T00:08:57.451Z,5.85
2019-05-03T00:11:24.031Z,9.83
2019-05-03T00:13:52.553Z,6.75
2019-05-03T00:16:33.097Z,8.43
2019-05-03T00:19:01.556Z,7.25
2019-05-03T00:21:30.073Z,6.87
2019-05-03T00:23:56.722Z,11.90
2019-05-03T00:26:23.315Z,9.95
2019-05-03T00:28:52.043Z,9.30
2019-05-03T00:31:22.634Z,8.75
2019-05-03T00:33:51.751Z,6.95
2019-05-03T00:36:22.833Z,8.05
2019-05-03T00:38:52.468Z,8.60
2019-05-03T00:41:19.315Z,6.95
2019-05-03T00:43:49.103Z,12.47
2019-05-03T00:46:15.739Z,11.03
2019-05-03T00:48:43.015Z,8.60
2019-05-03T00:51:11.782Z,8.95
2019-05-03T00:53:38.494Z,9.85
2019-05-03T00:56:05.112Z,8.48
2019-05-03T00:58:33.570Z,9.00
2019-05-03T01:01:02.469Z,9.38
2019-05-03T01:03:29.405Z,9.15
2019-05-03T01:05:57.870Z,10.88
2019-05-03T01:08:24.523Z,10.63
2019-05-03T01:10:51.738Z,8.80
2019-05-03T01:13:18.622Z,9.38
2019-05-03T01:15:47.240Z,9.28
2019-05-03T01:18:15.659Z,12.65
2019-05-03T01:20:44.091Z,8.78
2019-05-03T01:23:12.436Z,9.50
2019-05-03T01:25:39.281Z,10.65
2019-05-03T01:28:05.909Z,11.28
2019-05-03T01:30:35.296Z,9.95
2019-05-03T01:33:02.817Z,11.50
2019-05-03T01:35:32.267Z,14.20
2019-05-03T01:37:59.108Z,11.93
2019-05-03T01:40:25.626Z,9.28
2019-05-03T01:42:54.990Z,11.73
2019-05-03T01:45:22.796Z,13.43
2019-05-03T01:47:52.600Z,12.75
2019-05-03T01:50:27.142Z,9.70
2019-05-03T01:52:55.593Z,9.73
2019-05-03T01:55:23.987Z,8.58
2019-05-03T01:57:52.402Z,13.30
2019-05-03T02:00:24.730Z,9.88
2019-05-03T02:02:53.197Z,14.23
2019-05-03T02:05:24.676Z,10.75
2019-05-03T02:07:51.964Z,8.68
2019-05-03T02:10:18.772Z,9.88
2019-05-03T02:12:45.461Z,12.05
2019-05-03T02:15:12.084Z,11.20
2019-05-03T02:17:38.689Z,8.85
2019-05-03T02:20:05.659Z,11.05
2019-05-03T02:22:33.358Z,9.13
2019-05-03T02:25:01.760Z,12.00
2019-05-03T02:27:29.029Z,10.48
2019-05-03T02:29:57.450Z,13.00
2019-05-03T02:32:24.089Z,9.25
2019-05-03T02:34:53.520Z,13.78
2019-05-03T02:37:22.499Z,10.13
2019-05-03T02:39:53.216Z,10.82
2019-05-03T02:42:19.972Z,12.68
2019-05-03T02:44:47.623Z,12.80
2019-05-03T02:47:16.481Z,9.45
2019-05-03T02:49:45.618Z,12.73
2019-05-03T02:52:15.150Z,9.83
2019-05-03T02:54:42.886Z,11.65
2019-05-03T02:57:09.808Z,10.55
2019-05-03T02:59:36.444Z,8.78
2019-05-03T03:02:06.124Z,9.60
2019-05-03T03:04:35.141Z,9.63
2019-05-03T03:07:01.557Z,9.33
2019-05-03T03:09:29.042Z,8.80
2019-05-03T03:11:57.552Z,11.28
2019-05-03T03:14:27.464Z,10.65
2019-05-03T03:16:58.853Z,11.63
2019-05-03T03:19:26.915Z,10.50
2019-05-03T03:21:56.474Z,11.22
2019-05-03T03:24:26.379Z,11.78
2019-05-03T03:26:56.747Z,9.93
2019-05-03T03:29:26.991Z,12.80
2019-05-03T03:32:00.080Z,11.68
2019-05-03T03:34:38.545Z,11.12
2019-05-03T03:37:09.363Z,9.93
2019-05-03T03:39:33.020Z,9.20
2019-05-03T03:41:59.970Z,9.25
2019-05-03T03:44:26.989Z,8.43
2019-05-03T03:46:57.883Z,9.83
2019-05-03T03:49:26.725Z,13.13
2019-05-03T03:51:56.129Z,7.60
2019-05-03T03:54:26.259Z,6.95
2019-05-03T03:57:02.954Z,8.75
2019-05-03T03:59:26.633Z,7.55
2019-05-03T04:01:55.083Z,10.25
2019-05-03T04:04:25.902Z,10.23
2019-05-03T04:06:52.405Z,11.73
2019-05-03T04:09:19.493Z,7.58
2019-05-03T04:11:46.370Z,9.78
2019-05-03T04:14:16.175Z,15.20
2019-05-03T04:16:51.922Z,9.90
2019-05-03T04:19:25.095Z,8.58
2019-05-03T04:21:51.992Z,12.98
2019-05-03T04:24:18.870Z,10.25
2019-05-03T04:26:45.766Z,8.98
2019-05-03T04:29:15.858Z,9.45
2019-05-03T04:31:45.756Z,11.93
2019-05-03T04:34:15.990Z,10.50
2019-05-03T04:36:42.023Z,10.32
2019-05-03T04:39:10.943Z,11.20
2019-05-03T04:41:37.903Z,9.60
2019-05-03T04:44:06.333Z,7.67
2019-05-03T04:46:35.666Z,9.73
2019-05-03T04:49:01.700Z,10.18
2019-05-03T04:51:28.333Z,7.87
2019-05-03T04:53:56.778Z,8.03
2019-05-03T04:56:26.032Z,8.35
2019-05-03T04:58:52.011Z,8.55
2019-05-03T05:01:18.678Z,9.68
2019-05-03T05:03:45.801Z,8.50
2019-05-03T05:06:15.230Z,10.85
2019-05-03T05:08:41.096Z,8.85
2019-05-03T05:11:10.593Z,7.20
2019-05-03T05:13:37.443Z,13.18
2019-05-03T05:16:05.903Z,12.40
2019-05-03T05:18:38.038Z,11.97
2019-05-03T05:21:08.063Z,13.58
2019-05-03T05:23:35.409Z,12.88
2019-05-03T05:26:05.563Z,7.97
2019-05-03T05:28:47.840Z,9.30
2019-05-03T05:31:15.151Z,9.83
2019-05-03T05:33:44.624Z,8.65
2019-05-03T05:36:11.538Z,9.88
2019-05-03T05:38:38.227Z,11.63
2019-05-03T05:41:05.388Z,11.48
2019-05-03T05:43:33.267Z,5.92
2019-05-03T05:46:01.713Z,9.85
2019-05-03T05:48:39.193Z,8.10
2019-05-03T05:51:05.858Z,10.45
2019-05-03T05:53:32.499Z,7.78
2019-05-03T05:56:06.806Z,6.65
2019-05-03T05:58:36.403Z,12.28
2019-05-03T06:01:05.488Z,8.13
2019-05-03T06:03:34.338Z,7.03
2019-05-03T06:06:05.266Z,7.53
2019-05-03T06:08:40.863Z,10.70
2019-05-03T06:11:25.835Z,8.65
2019-05-03T06:13:54.667Z,6.90
2019-05-03T06:16:24.529Z,10.23
2019-05-03T06:18:54.655Z,9.05
2019-05-03T06:21:29.080Z,8.18
2019-05-03T06:23:57.565Z,6.70
2019-05-03T06:26:36.435Z,7.65
2019-05-03T06:29:06.448Z,7.03
2019-05-03T06:31:47.272Z,6.65
2019-05-03T06:34:14.972Z,6.42
2019-05-03T06:36:44.291Z,6.70
2019-05-03T06:39:11.096Z,5.80
2019-05-03T06:41:37.740Z,12.05
2019-05-03T06:44:04.441Z,9.20
2019-05-03T06:46:45.573Z,5.87
2019-05-03T06:49:15.136Z,7.58
2019-05-03T06:51:45.673Z,5.95
2019-05-03T06:54:12.153Z,11.38
2019-05-03T06:56:41.363Z,11.90
2019-05-03T06:59:09.060Z,14.40
2019-05-03T07:01:44.824Z,8.08
2019-05-03T07:04:16.216Z,6.42
2019-05-03T07:06:57.782Z,9.30
2019-05-03T07:09:26.261Z,14.10
2019-05-03T07:11:52.835Z,8.35
2019-05-03T07:14:19.469Z,7.67
2019-05-03T07:16:46.056Z,9.83
2019-05-03T07:19:14.741Z,9.33
2019-05-03T07:21:44.678Z,4.92
2019-05-03T07:24:14.690Z,5.35
2019-05-03T07:26:44.665Z,7.75
2019-05-03T07:29:12.087Z,4.95
2019-05-03T07:31:41.305Z,8.08
2019-05-03T07:34:11.334Z,9.35
2019-05-03T07:36:37.967Z,6.62
2019-05-03T07:39:06.789Z,10.63
2019-05-03T07:41:35.475Z,7.80
2019-05-03T07:44:01.962Z,6.60
2019-05-03T07:46:28.548Z,9.40
2019-05-03T07:48:55.163Z,7.60
2019-05-03T07:51:21.819Z,5.28
2019-05-03T07:54:04.520Z,3.95
2019-05-03T07:56:54.889Z,4.80
2019-05-03T07:59:27.839Z,8.98
2019-05-03T08:01:57.139Z,7.35
2019-05-03T08:04:25.515Z,9.55
2019-05-03T08:06:54.963Z,9.45
2019-05-03T08:09:22.111Z,6.95
2019-05-03T08:11:50.055Z,4.95
2019-05-03T08:14:32.648Z,6.30
2019-05-03T08:17:00.758Z,7.83
2019-05-03T08:19:27.525Z,6.28
2019-05-03T08:21:56.837Z,6.80
2019-05-03T08:24:25.178Z,7.80
2019-05-03T08:26:52.065Z,6.65
2019-05-03T08:29:19.908Z,8.63
2019-05-03T08:31:51.094Z,7.28
2019-05-03T08:34:25.849Z,9.43
2019-05-03T08:37:05.158Z,7.20
2019-05-03T08:39:32.485Z,11.48
2019-05-03T08:42:00.847Z,6.47
2019-05-03T08:44:27.471Z,7.05
2019-05-03T08:46:56.598Z,9.98
2019-05-03T08:49:25.344Z,5.80
2019-05-03T08:51:51.738Z,6.67
2019-05-03T08:54:18.371Z,7.72
2019-05-03T08:56:45.171Z,7.17
2019-05-03T08:59:11.842Z,8.30
2019-05-03T09:01:39.573Z,7.08
2019-05-03T09:04:06.215Z,7.15
2019-05-03T09:06:32.925Z,8.73
2019-05-03T09:08:59.540Z,9.03
2019-05-03T09:11:33.942Z,11.22
2019-05-03T09:13:56.521Z,9.05
2019-05-03T09:16:25.011Z,8.83
2019-05-03T09:18:51.649Z,8.33
2019-05-03T09:21:19.109Z,8.20
2019-05-03T09:23:45.741Z,5.75
2019-05-03T09:26:12.302Z,8.43
2019-05-03T09:28:40.297Z,5.37
2019-05-03T09:31:07.256Z,9.08
2019-05-03T09:33:35.657Z,6.03
2019-05-03T09:36:02.496Z,5.65
2019-05-03T09:38:35.025Z,6.25
2019-05-03T09:41:05.307Z,6.72
2019-05-03T09:43:31.963Z,7.22
2019-05-03T09:45:58.690Z,6.67
2019-05-03T09:48:25.654Z,5.35
2019-05-03T09:50:55.589Z,5.10
2019-05-03T09:53:25.632Z,5.12
2019-05-03T09:55:52.455Z,3.65
2019-05-03T09:58:19.331Z,4.37
2019-05-03T10:00:46.600Z,5.15
2019-05-03T10:03:13.533Z,4.72
2019-05-03T10:05:40.108Z,3.58
2019-05-03T10:08:06.828Z,5.85
2019-05-03T10:10:53.189Z,5.12
2019-05-03T10:13:23.358Z,4.12
2019-05-03T10:15:48.357Z,4.22
2019-05-03T10:18:15.863Z,5.92
2019-05-03T10:20:44.516Z,7.85
2019-05-03T10:23:14.796Z,9.90
2019-05-03T10:25:41.387Z,7.45
2019-05-03T10:28:08.830Z,8.58
2019-05-03T10:30:35.541Z,10.75
2019-05-03T10:33:05.995Z,10.13
2019-05-03T10:35:35.346Z,12.85
2019-05-03T10:38:02.207Z,9.73
2019-05-03T10:40:28.850Z,8.83
2019-05-03T10:42:55.549Z,12.33
2019-05-03T10:45:25.682Z,11.40
2019-05-03T10:47:50.883Z,11.90
2019-05-03T10:50:17.612Z,11.10
2019-05-03T10:53:05.021Z,10.05
2019-05-03T10:55:31.162Z,9.25
2019-05-03T10:58:11.589Z,9.60
2019-05-03T11:00:45.075Z,6.97
2019-05-03T11:03:08.829Z,8.35
2019-05-03T11:05:35.405Z,7.03
2019-05-03T11:08:04.916Z,5.62
2019-05-03T11:10:32.239Z,6.40
2019-05-03T11:12:58.859Z,6.00
2019-05-03T11:15:27.024Z,5.85
2019-05-03T11:17:54.874Z,6.20
2019-05-03T11:20:35.524Z,4.87
2019-05-03T11:23:06.905Z,6.90
2019-05-03T11:25:34.552Z,7.37
2019-05-03T11:28:04.767Z,5.42
2019-05-03T11:30:31.927Z,6.25
2019-05-03T11:33:04.036Z,6.10
2019-05-03T11:35:32.440Z,5.00
2019-05-03T11:38:00.921Z,5.85
2019-05-03T11:40:27.578Z,6.08
2019-05-03T11:42:56.061Z,5.53
2019-05-03T11:45:24.621Z,7.53
2019-05-03T11:47:51.301Z,5.28
2019-05-03T11:50:18.488Z,6.87
2019-05-03T11:52:47.202Z,5.33
2019-05-03T11:55:15.982Z,4.95
2019-05-03T11:57:42.263Z,7.75
2019-05-03T12:00:10.768Z,4.85
2019-05-03T12:02:40.630Z,6.03
2019-05-03T12:05:09.139Z,8.93
2019-05-03T12:07:39.334Z,4.20
2019-05-03T12:10:15.163Z,6.22
2019-05-03T12:12:38.429Z,5.45
2019-05-03T12:15:06.011Z,6.97
2019-05-03T12:17:51.870Z,4.58
2019-05-03T12:20:14.339Z,5.65
2019-05-03T12:22:41.468Z,4.08
2019-05-03T12:25:10.434Z,3.70
2019-05-03T12:27:38.989Z,5.58
2019-05-03T12:30:06.172Z,3.90
2019-05-03T12:32:34.545Z,3.30
2019-05-03T12:35:06.173Z,3.30
2019-05-03T12:37:35.369Z,4.62
2019-05-03T12:40:05.545Z,4.95
2019-05-03T12:42:35.517Z,4.33
2019-05-03T12:45:04.571Z,4.58
2019-05-03T12:47:31.512Z,5.00
2019-05-03T12:49:58.094Z,4.92
2019-05-03T12:52:26.762Z,3.92
2019-05-03T12:54:55.177Z,5.58
2019-05-03T12:57:21.991Z,6.12
2019-05-03T12:59:56.200Z,4.10
2019-05-03T13:02:33.373Z,5.12
2019-05-03T13:05:00.009Z,5.20
2019-05-03T13:07:37.290Z,3.10
2019-05-03T13:10:06.560Z,3.20
2019-05-03T13:12:34.730Z,4.60
2019-05-03T13:15:01.560Z,6.25
2019-05-03T13:17:36.542Z,5.58
2019-05-03T13:20:05.815Z,4.80
2019-05-03T13:22:35.074Z,5.17
2019-05-03T13:25:04.451Z,4.03
2019-05-03T13:27:31.045Z,4.40
2019-05-03T13:29:57.899Z,5.17
2019-05-03T13:32:24.589Z,4.20
2019-05-03T13:34:51.246Z,6.50
2019-05-03T13:37:17.828Z,5.47
2019-05-03T13:39:45.237Z,5.12
2019-05-03T13:42:12.019Z,5.17
2019-05-03T13:44:38.643Z,6.47
2019-05-03T13:47:05.262Z,9.25
2019-05-03T13:49:31.873Z,8.28
2019-05-03T13:51:58.543Z,7.65
2019-05-03T13:54:25.594Z,9.15
2019-05-03T13:56:52.405Z,6.85
2019-05-03T13:59:22.185Z,12.13
2019-05-03T14:01:49.427Z,9.78
2019-05-03T14:04:16.069Z,8.05
2019-05-03T14:06:44.545Z,7.50
2019-05-03T14:09:11.268Z,9.63
2019-05-03T14:11:38.666Z,9.95
2019-05-03T14:14:05.308Z,7.25
2019-05-03T14:16:31.919Z,10.32
2019-05-03T14:19:00.334Z,13.38
2019-05-03T14:21:31.286Z,18.40
2019-05-03T14:24:11.179Z,14.70
2019-05-03T14:26:39.272Z,13.45
2019-05-03T14:29:06.022Z,15.65
2019-05-03T14:31:34.504Z,19.65
2019-05-03T14:34:01.197Z,16.17
2019-05-03T14:36:28.797Z,9.95
2019-05-03T14:38:55.419Z,12.40
2019-05-03T14:41:22.041Z,14.73
2019-05-03T14:43:49.614Z,8.93
2019-05-03T14:46:29.330Z,14.83
2019-05-03T14:48:45.773Z,12.75
2019-05-03T14:51:14.703Z,9.85
2019-05-03T14:53:41.451Z,12.73
2019-05-03T14:56:09.892Z,15.83
2019-05-03T14:58:56.018Z,10.20
2019-05-03T15:01:41.299Z,11.63
2019-05-03T15:04:07.928Z,10.82
2019-05-03T15:06:35.756Z,14.25
2019-05-03T15:09:05.913Z,11.15
2019-05-03T15:11:34.438Z,13.15
2019-05-03T15:14:01.259Z,12.45
2019-05-03T15:16:27.881Z,11.35
2019-05-03T15:18:54.933Z,13.95
2019-05-03T15:21:21.677Z,12.82
2019-05-03T15:23:48.261Z,13.88
2019-05-03T15:26:14.921Z,14.23
2019-05-03T15:28:41.535Z,13.95
2019-05-03T15:31:08.170Z,16.00
2019-05-03T15:33:35.373Z,15.43
2019-05-03T15:36:02.170Z,15.80
2019-05-03T15:38:28.768Z,15.38
2019-05-03T15:40:56.348Z,15.28
2019-05-03T15:43:29.149Z,13.45
2019-05-03T15:46:14.733Z,14.78
2019-05-03T15:48:46.348Z,13.65
2019-05-03T15:51:15.008Z,18.87
2019-05-03T15:53:41.689Z,16.25
2019-05-03T15:56:10.109Z,14.07
2019-05-03T15:58:36.797Z,18.12
2019-05-03T16:01:04.673Z,14.00
2019-05-03T16:03:31.469Z,13.85
2019-05-03T16:05:58.110Z,16.07
2019-05-03T16:08:24.941Z,15.63
2019-05-03T16:10:52.231Z,20.08
2019-05-03T16:13:18.831Z,19.30
2019-05-03T16:15:45.445Z,19.87
2019-05-03T16:18:12.056Z,19.98
2019-05-03T16:20:39.408Z,26.17
2019-05-03T16:23:06.280Z,26.02
2019-05-03T16:25:32.867Z,22.98
2019-05-03T16:28:01.277Z,20.00
2019-05-03T16:30:30.682Z,16.35
2019-05-03T16:32:57.256Z,16.57
2019-05-03T16:35:25.554Z,15.25
2019-05-03T16:37:54.456Z,17.85
2019-05-03T16:40:21.173Z,18.23
2019-05-03T16:42:47.767Z,17.62
2019-05-03T16:45:17.025Z,14.53
2019-05-03T16:47:44.821Z,19.62
2019-05-03T16:50:14.316Z,20.60
2019-05-03T16:52:40.853Z,17.42
2019-05-03T16:55:07.442Z,20.68
2019-05-03T16:57:35.406Z,22.48
2019-05-03T17:00:06.821Z,18.80
2019-05-03T17:02:35.090Z,16.97
2019-05-03T17:05:14.676Z,12.05
2019-05-03T17:07:44.704Z,9.38
2019-05-03T17:10:15.342Z,9.95
2019-05-03T17:12:45.438Z,13.03
2019-05-03T17:15:14.414Z,12.25
2019-05-03T17:17:45.167Z,10.30
2019-05-03T17:20:14.445Z,13.30
2019-05-03T17:22:41.247Z,9.33
2019-05-03T17:25:07.890Z,13.75
2019-05-03T17:27:36.304Z,15.55
2019-05-03T17:30:07.962Z,14.78
2019-05-03T17:32:35.774Z,18.23
2019-05-03T17:35:06.289Z,16.97
2019-05-03T17:37:34.707Z,15.13
2019-05-03T17:40:11.152Z,12.33
2019-05-03T17:42:56.729Z,12.85
2019-05-03T17:45:25.451Z,13.48
2019-05-03T17:47:54.835Z,16.40
2019-05-03T17:52:54.589Z,17.50
2019-05-03T17:55:32.702Z,15.95
2019-05-03T17:58:04.500Z,17.98
2019-05-03T18:00:34.833Z,25.10
2019-05-03T18:03:02.482Z,21.90
2019-05-03T18:05:46.669Z,24.37
2019-05-03T18:08:35.390Z,23.47
2019-05-03T18:16:32.433Z,22.80
2019-05-03T18:18:59.028Z,19.00
2019-05-03T18:21:27.904Z,17.40
2019-05-03T18:23:54.724Z,14.40
2019-05-03T18:26:21.486Z,19.40
2019-05-03T18:28:48.255Z,21.17
2019-05-03T18:31:15.060Z,26.82
2019-05-03T18:33:44.304Z,35.65
2019-05-03T18:36:11.302Z,26.37
2019-05-03T18:38:38.856Z,28.73
2019-05-03T18:41:07.962Z,42.17
2019-05-03T18:43:55.684Z,31.35
2019-05-03T18:46:27.178Z,29.30
2019-05-03T18:48:55.173Z,27.85
2019-05-03T18:51:25.101Z,27.15
2019-05-03T18:53:51.854Z,26.48
2019-05-03T18:56:18.455Z,25.52
2019-05-03T18:58:45.082Z,25.10
2019-05-03T19:01:12.078Z,21.65
2019-05-03T19:03:45.099Z,23.52
2019-05-03T19:06:12.660Z,28.87
2019-05-03T19:08:54.324Z,24.47
2019-05-03T19:11:27.165Z,24.95
2019-05-03T19:14:02.028Z,30.40
2019-05-03T19:16:39.351Z,27.73
2019-05-03T19:19:07.428Z,27.55
2019-05-03T19:21:35.007Z,36.10
2019-05-03T19:24:02.282Z,24.80
2019-05-03T19:26:29.989Z,27.10
2019-05-03T19:28:56.698Z,22.73
2019-05-03T19:31:27.748Z,28.67
2019-05-03T19:33:55.050Z,32.23
2019-05-03T19:36:21.981Z,30.92
2019-05-03T19:38:48.669Z,31.33
2019-05-03T19:41:16.294Z,36.40
2019-05-03T19:43:44.903Z,35.85
2019-05-03T19:46:12.099Z,52.20
2019-05-03T19:48:39.741Z,42.00
2019-05-03T19:51:06.492Z,33.48
2019-05-03T19:53:45.653Z,33.35
2019-05-03T19:56:14.813Z,37.85
2019-05-03T19:58:44.202Z,35.10
2019-05-03T20:01:30.500Z,52.08
2019-05-03T20:04:02.251Z,54.73
2019-05-03T20:06:31.604Z,38.40
2019-05-03T20:09:00.178Z,33.42
2019-05-03T20:11:27.655Z,31.48
2019-05-03T20:13:55.683Z,37.53
2019-05-03T20:16:22.490Z,33.15
2019-05-03T20:18:50.774Z,33.58
2019-05-03T20:21:17.532Z,33.40
2019-05-03T20:23:52.243Z,31.25
2019-05-03T20:26:21.587Z,30.35
2019-05-03T20:28:59.261Z,29.30
2019-05-03T20:34:29.615Z,27.77
2019-05-03T20:36:56.767Z,25.75
2019-05-03T20:39:25.411Z,26.17
2019-05-03T20:41:52.664Z,26.95
2019-05-03T20:44:21.427Z,23.25
2019-05-03T20:46:59.486Z,18.48
2019-05-03T20:49:31.263Z,17.57
2019-05-03T20:51:57.888Z,15.13
2019-05-03T20:54:24.950Z,12.80
2019-05-03T20:56:51.723Z,13.93
2019-05-03T20:59:18.554Z,13.83
2019-05-03T21:01:49.512Z,13.13
2019-05-03T21:04:16.660Z,13.80
2019-05-03T21:06:45.524Z,10.40
2019-05-03T21:09:14.809Z,12.30
2019-05-03T21:11:44.998Z,12.95
2019-05-03T21:14:17.705Z,12.07
2019-05-03T21:16:58.175Z,15.65
2019-05-03T21:19:44.671Z,13.38
2019-05-03T21:22:14.404Z,12.18
2019-05-03T21:24:45.443Z,13.10
2019-05-03T21:27:12.276Z,13.68
2019-05-03T21:29:51.876Z,16.42
2019-05-03T21:32:21.228Z,15.72
2019-05-03T21:34:48.008Z,16.45
2019-05-03T21:37:18.022Z,14.28
2019-05-03T21:39:45.444Z,15.53
2019-05-03T21:42:15.109Z,14.53
2019-05-03T21:44:42.043Z,15.25
2019-05-03T21:47:10.592Z,17.00
2019-05-03T21:49:45.158Z,21.68
2019-05-03T21:52:14.692Z,22.07
2019-05-03T21:54:45.093Z,23.07
2019-05-03T21:57:11.868Z,25.00
2019-05-03T21:59:41.534Z,23.42
2019-05-03T22:02:11.731Z,25.50
2019-05-03T22:04:44.454Z,21.65
2019-05-03T22:07:11.422Z,32.45
2019-05-03T22:09:38.205Z,28.05
2019-05-03T22:12:09.883Z,22.62
2019-05-03T22:14:38.754Z,29.52
2019-05-03T22:17:25.311Z,26.68
2019-05-03T22:19:54.949Z,26.97
2019-05-03T22:22:39.110Z,27.55
2019-05-03T22:25:08.010Z,24.37
2019-05-03T22:27:40.597Z,26.42
2019-05-03T22:30:09.569Z,25.17
2019-05-03T22:32:39.353Z,25.25
2019-05-03T22:35:20.038Z,29.10
2019-05-03T22:37:50.565Z,23.62
2019-05-03T22:40:20.738Z,24.47
2019-05-03T22:42:47.722Z,27.93
2019-05-03T22:45:16.567Z,25.40
2019-05-03T22:47:44.596Z,21.48
2019-05-03T22:50:11.641Z,20.43
2019-05-03T22:52:38.417Z,21.62
2019-05-03T22:55:06.602Z,24.07
2019-05-03T22:57:34.967Z,20.23
2019-05-03T23:00:06.020Z,18.05
2019-05-03T23:02:35.073Z,20.37
2019-05-03T23:05:02.348Z,19.92
2019-05-03T23:07:31.033Z,15.48
2019-05-03T23:09:58.785Z,17.55
2019-05-03T23:12:28.980Z,19.05
2019-05-03T23:14:57.988Z,14.05
2019-05-03T23:17:25.351Z,14.00
2019-05-03T23:19:57.435Z,14.83
2019-05-03T23:22:31.797Z,14.20
2019-05-03T23:24:59.753Z,14.13
2019-05-03T23:27:28.394Z,13.10
2019-05-03T23:29:58.429Z,17.73
2019-05-03T23:32:25.338Z,17.12
2019-05-03T23:34:54.277Z,15.13
2019-05-03T23:37:21.153Z,16.73
2019-05-03T23:39:48.178Z,15.43
2019-05-03T23:42:15.559Z,15.98
2019-05-03T23:44:42.612Z,17.80
2019-05-03T23:47:14.758Z,16.93
2019-05-03T23:49:41.587Z,17.10
2019-05-03T23:52:25.771Z,17.02
2019-05-03T23:54:54.836Z,17.50
2019-05-03T23:57:25.733Z,18.40
2019-05-03T23:59:54.483Z,23.57
